sensor_id;sensor_type;location;lat;lon;timestamp;pressure;altitude;pressure_sealevel;temperature;humidity
61742;BME280;47650;49.848;9.620;2023-05-03T00:02:14;100629.84;;;7.33;68.38
61742;BME280;47650;49.848;9.620;2023-05-03T00:04:43;100613.41;;;7.15;68.17
61742;BME280;47650;49.848;9.620;2023-05-03T00:07:16;100644.66;;;7.36;67.96
61742;BME280;47650;49.848;9.620;2023-05-03T00:09:42;100558.25;;;6.85;67.89
61742;BME280;47650;49.848;9.620;2023-05-03T00:12:08;100606.66;;;7.11;67.65
61742;BME280;47650;49.848;9.620;2023-05-03T00:14:34;100636.91;;;7.33;68.40
61742;BME280;47650;49.848;9.620;2023-05-03T00:17:05;100643.91;;;7.34;68.91
61742;BME280;47650;49.848;9.620;2023-05-03T00:19:32;100645.78;;;7.32;68.68
61742;BME280;47650;49.848;9.620;2023-05-03T00:21:59;100557.97;;;6.75;68.75
61742;BME280;47650;49.848;9.620;2023-05-03T00:24:29;100633.16;;;7.37;68.57
61742;BME280;47650;49.848;9.620;2023-05-03T00:26:55;100537.53;;;6.79;68.62
61742;BME280;47650;49.848;9.620;2023-05-03T00:29:20;100635.47;;;7.42;68.81
61742;BME280;47650;49.848;9.620;2023-05-03T00:31:48;100636.38;;;7.55;68.85
61742;BME280;47650;49.848;9.620;2023-05-03T00:34:13;100633.13;;;7.64;69.40
61742;BME280;47650;49.848;9.620;2023-05-03T00:36:39;100575.22;;;7.36;69.27
61742;BME280;47650;49.848;9.620;2023-05-03T00:39:06;100500.84;;;7.03;68.44
61742;BME280;47650;49.848;9.620;2023-05-03T00:41:32;100637.09;;;7.97;68.41
61742;BME280;47650;49.848;9.620;2023-05-03T00:43:57;100542.22;;;7.56;68.21
61742;BME280;47650;49.848;9.620;2023-05-03T00:46:25;100636.19;;;8.24;68.27
61742;BME280;47650;49.848;9.620;2023-05-03T00:48:50;100581.34;;;8.02;67.22
61742;BME280;47650;49.848;9.620;2023-05-03T00:51:17;100642.34;;;8.50;67.11
61742;BME280;47650;49.848;9.620;2023-05-03T00:53:45;100572.69;;;8.25;67.00
61742;BME280;47650;49.848;9.620;2023-05-03T00:56:14;100639.44;;;8.79;66.84
61742;BME280;47650;49.848;9.620;2023-05-03T00:58:53;100561.25;;;8.51;66.54
61742;BME280;47650;49.848;9.620;2023-05-03T01:01:19;100531.66;;;8.45;66.36
61742;BME280;47650;49.848;9.620;2023-05-03T01:03:46;100621.38;;;9.10;66.34
61742;BME280;47650;49.848;9.620;2023-05-03T01:06:20;100621.78;;;9.16;65.38
61742;BME280;47650;49.848;9.620;2023-05-03T01:09:02;100563.03;;;9.00;65.49
61742;BME280;47650;49.848;9.620;2023-05-03T01:14:31;100617.84;;;9.46;64.25
61742;BME280;47650;49.848;9.620;2023-05-03T01:17:11;100608.88;;;9.60;64.42
61742;BME280;47650;49.848;9.620;2023-05-03T01:19:43;100611.69;;;9.70;64.67
61742;BME280;47650;49.848;9.620;2023-05-03T01:22:16;100616.53;;;9.76;64.00
61742;BME280;47650;49.848;9.620;2023-05-03T01:24:50;100581.13;;;9.66;63.58
61742;BME280;47650;49.848;9.620;2023-05-03T01:27:15;100612.25;;;9.97;63.74
61742;BME280;47650;49.848;9.620;2023-05-03T01:29:41;100605.03;;;10.00;61.92
61742;BME280;47650;49.848;9.620;2023-05-03T01:32:14;100594.69;;;10.08;62.41
61742;BME280;47650;49.848;9.620;2023-05-03T01:34:56;100579.03;;;9.93;61.84
61742;BME280;47650;49.848;9.620;2023-05-03T01:37:26;100577.84;;;10.09;62.31
61742;BME280;47650;49.848;9.620;2023-05-03T01:39:58;100591.81;;;10.22;62.08
61742;BME280;47650;49.848;9.620;2023-05-03T01:42:26;100330.66;;;8.71;62.32
61742;BME280;47650;49.848;9.620;2023-05-03T01:44:55;100526.03;;;9.93;61.67
61742;BME280;47650;49.848;9.620;2023-05-03T01:47:20;100469.31;;;9.62;61.73
61742;BME280;47650;49.848;9.620;2023-05-03T01:49:47;100586.75;;;10.30;61.13
61742;BME280;47650;49.848;9.620;2023-05-03T01:52:12;100590.16;;;10.32;61.37
61742;BME280;47650;49.848;9.620;2023-05-03T01:54:40;100563.88;;;10.18;61.43
61742;BME280;47650;49.848;9.620;2023-05-03T01:57:07;100591.88;;;10.33;61.16
61742;BME280;47650;49.848;9.620;2023-05-03T01:59:32;100587.41;;;10.34;61.39
61742;BME280;47650;49.848;9.620;2023-05-03T02:01:58;100589.22;;;10.33;60.88
61742;BME280;47650;49.848;9.620;2023-05-03T02:04:23;100584.75;;;10.34;61.28
61742;BME280;47650;49.848;9.620;2023-05-03T02:06:48;100561.09;;;10.20;60.80
61742;BME280;47650;49.848;9.620;2023-05-03T02:09:14;100584.03;;;10.32;60.91
61742;BME280;47650;49.848;9.620;2023-05-03T02:11:39;100575.78;;;10.24;61.38
61742;BME280;47650;49.848;9.620;2023-05-03T02:14:06;100528.91;;;9.90;61.05
61742;BME280;47650;49.848;9.620;2023-05-03T02:16:32;100586.63;;;10.09;61.63
61742;BME280;47650;49.848;9.620;2023-05-03T02:21:25;100532.03;;;9.73;61.78
61742;BME280;47650;49.848;9.620;2023-05-03T02:23:52;100478.22;;;9.26;62.02
61742;BME280;47650;49.848;9.620;2023-05-03T02:26:18;100477.31;;;9.38;61.80
61742;BME280;47650;49.848;9.620;2023-05-03T02:28:44;100553.94;;;9.75;61.70
61742;BME280;47650;49.848;9.620;2023-05-03T02:31:09;100590.06;;;9.87;61.70
61742;BME280;47650;49.848;9.620;2023-05-03T02:33:35;100515.34;;;9.13;61.90
61742;BME280;47650;49.848;9.620;2023-05-03T02:36:05;100595.91;;;9.68;62.13
61742;BME280;47650;49.848;9.620;2023-05-03T02:38:30;100536.91;;;9.19;62.75
61742;BME280;47650;49.848;9.620;2023-05-03T02:40:56;100606.09;;;9.50;62.82
61742;BME280;47650;49.848;9.620;2023-05-03T02:43:26;100611.22;;;9.40;62.83
61742;BME280;47650;49.848;9.620;2023-05-03T02:45:53;100424.84;;;8.24;63.01
61742;BME280;47650;49.848;9.620;2023-05-03T02:48:18;100597.69;;;9.08;62.82
61742;BME280;47650;49.848;9.620;2023-05-03T02:50:44;100572.34;;;8.93;63.46
61742;BME280;47650;49.848;9.620;2023-05-03T02:53:11;100615.56;;;9.04;63.53
61742;BME280;47650;49.848;9.620;2023-05-03T02:55:36;100470.09;;;8.06;63.91
61742;BME280;47650;49.848;9.620;2023-05-03T02:58:05;100525.03;;;8.14;64.24
61742;BME280;47650;49.848;9.620;2023-05-03T03:00:32;100616.53;;;8.54;65.10
61742;BME280;47650;49.848;9.620;2023-05-03T03:02:58;100605.22;;;8.26;65.46
61742;BME280;47650;49.848;9.620;2023-05-03T03:05:24;100622.53;;;8.30;65.18
61742;BME280;47650;49.848;9.620;2023-05-03T03:07:50;100564.63;;;7.76;66.28
61742;BME280;47650;49.848;9.620;2023-05-03T03:10:15;100620.94;;;8.02;66.26
61742;BME280;47650;49.848;9.620;2023-05-03T03:12:42;100624.63;;;7.86;66.28
61742;BME280;47650;49.848;9.620;2023-05-03T03:15:08;100458.22;;;6.69;66.73
61742;BME280;47650;49.848;9.620;2023-05-03T03:17:33;100584.50;;;7.41;66.87
61742;BME280;47650;49.848;9.620;2023-05-03T03:20:08;100619.75;;;7.40;67.33
61742;BME280;47650;49.848;9.620;2023-05-03T03:22:43;100588.75;;;7.17;67.30
61742;BME280;47650;49.848;9.620;2023-05-03T03:25:10;100613.78;;;7.24;67.67
61742;BME280;47650;49.848;9.620;2023-05-03T03:27:37;100619.75;;;7.13;67.89
61742;BME280;47650;49.848;9.620;2023-05-03T03:30:02;100614.31;;;7.02;67.80
61742;BME280;47650;49.848;9.620;2023-05-03T03:32:28;100591.84;;;6.82;67.52
61742;BME280;47650;49.848;9.620;2023-05-03T03:34:55;100589.13;;;6.69;68.50
61742;BME280;47650;49.848;9.620;2023-05-03T03:37:21;100584.81;;;6.53;67.80
61742;BME280;47650;49.848;9.620;2023-05-03T03:39:47;100595.06;;;6.44;67.54
61742;BME280;47650;49.848;9.620;2023-05-03T03:42:13;100631.88;;;6.59;67.60
61742;BME280;47650;49.848;9.620;2023-05-03T03:44:41;100626.03;;;6.40;67.48
61742;BME280;47650;49.848;9.620;2023-05-03T03:47:07;100526.09;;;5.79;68.80
61742;BME280;47650;49.848;9.620;2023-05-03T03:49:32;100649.56;;;6.43;69.05
61742;BME280;47650;49.848;9.620;2023-05-03T03:51:57;100639.59;;;6.34;68.72
61742;BME280;47650;49.848;9.620;2023-05-03T03:54:23;100612.09;;;6.09;69.81
61742;BME280;47650;49.848;9.620;2023-05-03T03:56:55;100650.22;;;6.32;70.13
61742;BME280;47650;49.848;9.620;2023-05-03T03:59:21;100654.63;;;6.32;69.96
61742;BME280;47650;49.848;9.620;2023-05-03T04:01:47;100560.19;;;5.67;69.01
61742;BME280;47650;49.848;9.620;2023-05-03T04:04:13;100651.53;;;6.25;68.86
61742;BME280;47650;49.848;9.620;2023-05-03T04:06:39;100649.06;;;6.22;68.40
61742;BME280;47650;49.848;9.620;2023-05-03T04:09:05;100649.06;;;6.22;69.11
61742;BME280;47650;49.848;9.620;2023-05-03T04:11:30;100652.44;;;6.24;69.34
61742;BME280;47650;49.848;9.620;2023-05-03T04:13:56;100650.56;;;6.26;69.32
61742;BME280;47650;49.848;9.620;2023-05-03T04:16:21;100653.13;;;6.28;69.89
61742;BME280;47650;49.848;9.620;2023-05-03T04:18:46;100622.44;;;6.12;69.19
61742;BME280;47650;49.848;9.620;2023-05-03T04:21:13;100655.75;;;6.28;69.55
61742;BME280;47650;49.848;9.620;2023-05-03T04:23:39;100658.78;;;6.36;69.60
61742;BME280;47650;49.848;9.620;2023-05-03T04:26:04;100551.81;;;5.74;69.34
61742;BME280;47650;49.848;9.620;2023-05-03T04:28:29;100586.41;;;5.98;69.40
61742;BME280;47650;49.848;9.620;2023-05-03T04:30:56;100651.53;;;6.39;69.13
61742;BME280;47650;49.848;9.620;2023-05-03T04:33:22;100666.50;;;6.39;69.47
61742;BME280;47650;49.848;9.620;2023-05-03T04:35:51;100631.28;;;6.26;69.58
61742;BME280;47650;49.848;9.620;2023-05-03T04:38:17;100637.31;;;6.28;68.83
61742;BME280;47650;49.848;9.620;2023-05-03T04:40:44;100671.03;;;6.51;68.85
61742;BME280;47650;49.848;9.620;2023-05-03T04:43:10;100600.16;;;6.18;68.03
61742;BME280;47650;49.848;9.620;2023-05-03T04:45:37;100533.22;;;5.77;68.35
61742;BME280;47650;49.848;9.620;2023-05-03T04:48:12;100519.31;;;5.75;68.34
61742;BME280;47650;49.848;9.620;2023-05-03T04:50:37;100672.44;;;6.71;68.40
61742;BME280;47650;49.848;9.620;2023-05-03T04:53:03;100674.03;;;6.74;67.99
61742;BME280;47650;49.848;9.620;2023-05-03T04:55:37;100672.88;;;6.78;68.09
61742;BME280;47650;49.848;9.620;2023-05-03T04:58:04;100679.78;;;6.81;67.84
61742;BME280;47650;49.848;9.620;2023-05-03T05:00:30;100668.59;;;6.77;67.00
61742;BME280;47650;49.848;9.620;2023-05-03T05:02:57;100635.25;;;6.62;67.02
61742;BME280;47650;49.848;9.620;2023-05-03T05:05:24;100679.09;;;6.91;67.46
61742;BME280;47650;49.848;9.620;2023-05-03T05:07:51;100589.94;;;6.42;67.36
61742;BME280;47650;49.848;9.620;2023-05-03T05:10:17;100685.31;;;7.05;67.48
61742;BME280;47650;49.848;9.620;2023-05-03T05:12:45;100684.81;;;7.12;67.01
61742;BME280;47650;49.848;9.620;2023-05-03T05:15:11;100654.66;;;6.75;66.57
61742;BME280;47650;49.848;9.620;2023-05-03T05:17:37;100634.75;;;6.98;66.39
61742;BME280;47650;49.848;9.620;2023-05-03T05:20:02;100626.19;;;6.94;66.66
61742;BME280;47650;49.848;9.620;2023-05-03T05:22:31;100655.53;;;7.17;65.71
61742;BME280;47650;49.848;9.620;2023-05-03T05:24:56;100660.94;;;7.28;65.45
61742;BME280;47650;49.848;9.620;2023-05-03T05:27:21;100689.16;;;7.55;65.77
61742;BME280;47650;49.848;9.620;2023-05-03T05:29:47;100693.91;;;7.63;65.28
61742;BME280;47650;49.848;9.620;2023-05-03T05:32:14;100656.00;;;7.51;65.14
61742;BME280;47650;49.848;9.620;2023-05-03T05:34:39;100696.09;;;7.83;63.95
61742;BME280;47650;49.848;9.620;2023-05-03T05:37:04;100713.13;;;7.92;64.16
61742;BME280;47650;49.848;9.620;2023-05-03T05:39:31;100704.94;;;8.09;64.35
61742;BME280;47650;49.848;9.620;2023-05-03T05:41:57;100668.78;;;7.97;64.13
61742;BME280;47650;49.848;9.620;2023-05-03T05:44:23;100665.56;;;8.06;63.84
61742;BME280;47650;49.848;9.620;2023-05-03T05:46:49;100669.75;;;7.96;63.39
61742;BME280;47650;49.848;9.620;2023-05-03T05:49:15;100677.94;;;8.32;63.09
61742;BME280;47650;49.848;9.620;2023-05-03T05:51:41;100700.38;;;8.52;63.30
61742;BME280;47650;49.848;9.620;2023-05-03T05:54:06;100674.16;;;8.61;62.12
61742;BME280;47650;49.848;9.620;2023-05-03T05:56:32;100678.59;;;8.61;61.48
61742;BME280;47650;49.848;9.620;2023-05-03T05:58:57;100696.09;;;9.13;60.62
61742;BME280;47650;49.848;9.620;2023-05-03T06:01:24;100555.53;;;8.18;60.69
61742;BME280;47650;49.848;9.620;2023-05-03T06:03:53;100660.19;;;9.22;60.18
61742;BME280;47650;49.848;9.620;2023-05-03T06:06:20;100688.13;;;9.98;59.21
61742;BME280;47650;49.848;9.620;2023-05-03T06:08:51;100693.69;;;10.07;57.73
61742;BME280;47650;49.848;9.620;2023-05-03T06:11:16;100597.31;;;8.89;59.44
61742;BME280;47650;49.848;9.620;2023-05-03T06:13:49;100693.94;;;10.15;58.99
61742;BME280;47650;49.848;9.620;2023-05-03T06:16:29;100603.31;;;10.34;56.45
61742;BME280;47650;49.848;9.620;2023-05-03T06:18:57;100685.38;;;11.26;54.65
61742;BME280;47650;49.848;9.620;2023-05-03T06:21:24;99890.88;;;6.80;53.20
61742;BME280;47650;49.848;9.620;2023-05-03T06:23:58;100616.44;;;11.36;53.04
61742;BME280;47650;49.848;9.620;2023-05-03T06:26:23;100673.44;;;12.29;50.69
61742;BME280;47650;49.848;9.620;2023-05-03T06:28:50;100679.75;;;11.95;50.93
61742;BME280;47650;49.848;9.620;2023-05-03T06:31:16;100655.03;;;11.83;50.02
61742;BME280;47650;49.848;9.620;2023-05-03T06:33:46;100614.84;;;11.44;49.77
61742;BME280;47650;49.848;9.620;2023-05-03T06:36:21;100617.81;;;12.47;47.63
61742;BME280;47650;49.848;9.620;2023-05-03T06:38:49;100675.19;;;12.70;47.98
61742;BME280;47650;49.848;9.620;2023-05-03T06:41:17;100550.22;;;12.18;46.36
61742;BME280;47650;49.848;9.620;2023-05-03T06:43:42;100580.94;;;12.63;45.69
61742;BME280;47650;49.848;9.620;2023-05-03T06:46:09;100666.81;;;13.25;46.76
61742;BME280;47650;49.848;9.620;2023-05-03T06:48:38;100595.72;;;13.06;46.48
61742;BME280;47650;49.848;9.620;2023-05-03T06:51:09;100546.75;;;12.68;45.95
61742;BME280;47650;49.848;9.620;2023-05-03T06:53:55;100634.53;;;12.68;46.02
61742;BME280;47650;49.848;9.620;2023-05-03T06:56:21;100631.50;;;12.42;47.81
61742;BME280;47650;49.848;9.620;2023-05-03T06:58:50;100654.66;;;12.51;48.76
61742;BME280;47650;49.848;9.620;2023-05-03T07:01:15;100661.03;;;12.70;48.50
61742;BME280;47650;49.848;9.620;2023-05-03T07:03:43;100659.47;;;11.94;48.88
61742;BME280;47650;49.848;9.620;2023-05-03T07:06:08;100662.63;;;12.51;47.49
61742;BME280;47650;49.848;9.620;2023-05-03T07:08:36;100666.66;;;11.71;49.36
61742;BME280;47650;49.848;9.620;2023-05-03T07:11:05;100618.00;;;12.03;48.66
61742;BME280;47650;49.848;9.620;2023-05-03T07:13:33;100551.47;;;11.72;49.58
61742;BME280;47650;49.848;9.620;2023-05-03T07:15:59;100592.91;;;11.96;49.96
61742;BME280;47650;49.848;9.620;2023-05-03T07:18:25;100637.81;;;12.20;49.54
61742;BME280;47650;49.848;9.620;2023-05-03T07:20:51;100631.28;;;12.03;48.71
61742;BME280;47650;49.848;9.620;2023-05-03T07:23:16;100637.97;;;11.86;49.33
61742;BME280;47650;49.848;9.620;2023-05-03T07:25:50;100631.72;;;11.55;50.23
61742;BME280;47650;49.848;9.620;2023-05-03T07:28:18;100615.19;;;12.04;48.86
61742;BME280;47650;49.848;9.620;2023-05-03T07:30:43;100648.50;;;12.30;49.39
61742;BME280;47650;49.848;9.620;2023-05-03T07:33:09;100643.59;;;12.25;48.28
61742;BME280;47650;49.848;9.620;2023-05-03T07:35:35;100599.88;;;12.49;48.27
61742;BME280;47650;49.848;9.620;2023-05-03T07:38:00;100630.75;;;13.11;47.71
61742;BME280;47650;49.848;9.620;2023-05-03T07:40:26;100641.34;;;12.51;48.33
61742;BME280;47650;49.848;9.620;2023-05-03T07:42:52;100600.75;;;11.97;48.83
61742;BME280;47650;49.848;9.620;2023-05-03T07:45:20;100636.34;;;12.98;47.89
61742;BME280;47650;49.848;9.620;2023-05-03T07:47:47;100566.78;;;12.32;47.96
61742;BME280;47650;49.848;9.620;2023-05-03T07:50:12;100587.22;;;13.22;47.60
61742;BME280;47650;49.848;9.620;2023-05-03T07:52:38;100392.69;;;12.36;47.18
61742;BME280;47650;49.848;9.620;2023-05-03T07:55:07;100633.66;;;13.49;46.40
61742;BME280;47650;49.848;9.620;2023-05-03T07:57:33;100633.53;;;13.80;45.81
61742;BME280;47650;49.848;9.620;2023-05-03T07:59:58;100602.66;;;13.87;45.42
61742;BME280;47650;49.848;9.620;2023-05-03T08:02:24;100625.78;;;13.96;44.78
61742;BME280;47650;49.848;9.620;2023-05-03T08:04:51;100621.41;;;14.05;45.15
61742;BME280;47650;49.848;9.620;2023-05-03T08:07:18;100629.84;;;14.10;45.82
61742;BME280;47650;49.848;9.620;2023-05-03T08:09:44;100601.81;;;14.43;45.56
61742;BME280;47650;49.848;9.620;2023-05-03T08:12:09;100625.78;;;14.63;45.05
61742;BME280;47650;49.848;9.620;2023-05-03T08:14:36;100623.63;;;15.04;44.15
61742;BME280;47650;49.848;9.620;2023-05-03T08:17:03;100585.63;;;15.10;44.31
61742;BME280;47650;49.848;9.620;2023-05-03T08:19:32;100607.03;;;15.46;43.82
61742;BME280;47650;49.848;9.620;2023-05-03T08:21:57;100625.66;;;15.56;42.61
61742;BME280;47650;49.848;9.620;2023-05-03T08:24:23;100618.03;;;15.79;42.08
61742;BME280;47650;49.848;9.620;2023-05-03T08:29:17;100611.56;;;15.82;41.78
61742;BME280;47650;49.848;9.620;2023-05-03T08:31:42;100614.88;;;16.28;41.34
61742;BME280;47650;49.848;9.620;2023-05-03T08:34:07;100604.88;;;15.86;41.39
61742;BME280;47650;49.848;9.620;2023-05-03T08:36:35;100558.25;;;15.44;41.01
61742;BME280;47650;49.848;9.620;2023-05-03T08:39:07;100596.78;;;15.95;41.08
61742;BME280;47650;49.848;9.620;2023-05-03T08:41:35;100552.91;;;15.88;41.03
61742;BME280;47650;49.848;9.620;2023-05-03T08:44:00;100605.19;;;16.61;40.32
61742;BME280;47650;49.848;9.620;2023-05-03T08:46:28;100579.09;;;16.98;39.86
61742;BME280;47650;49.848;9.620;2023-05-03T08:48:54;100600.16;;;16.92;38.68
61742;BME280;47650;49.848;9.620;2023-05-03T08:51:21;100594.66;;;16.68;39.53
61742;BME280;47650;49.848;9.620;2023-05-03T08:53:48;100541.09;;;17.10;39.15
61742;BME280;47650;49.848;9.620;2023-05-03T08:56:33;100578.22;;;18.37;37.00
61742;BME280;47650;49.848;9.620;2023-05-03T08:59:12;100557.38;;;18.55;35.86
61742;BME280;47650;49.848;9.620;2023-05-03T09:01:39;100586.53;;;20.14;34.09
61742;BME280;47650;49.848;9.620;2023-05-03T09:04:05;100581.91;;;21.18;31.95
61742;BME280;47650;49.848;9.620;2023-05-03T09:06:30;100571.03;;;21.70;30.15
61742;BME280;47650;49.848;9.620;2023-05-03T09:08:59;100539.66;;;22.80;28.99
61742;BME280;47650;49.848;9.620;2023-05-03T09:11:29;100563.94;;;25.32;25.85
61742;BME280;47650;49.848;9.620;2023-05-03T09:14:08;100525.94;;;25.32;24.48
61742;BME280;47650;49.848;9.620;2023-05-03T09:16:34;100538.06;;;27.21;22.09
61742;BME280;47650;49.848;9.620;2023-05-03T09:19:02;100552.38;;;28.42;21.62
61742;BME280;47650;49.848;9.620;2023-05-03T09:21:28;100554.38;;;29.78;19.77
61742;BME280;47650;49.848;9.620;2023-05-03T09:23:55;100556.47;;;29.25;20.42
61742;BME280;47650;49.848;9.620;2023-05-03T09:26:29;100550.00;;;30.16;19.23
61742;BME280;47650;49.848;9.620;2023-05-03T09:28:57;100493.19;;;32.60;17.87
61742;BME280;47650;49.848;9.620;2023-05-03T09:31:32;100536.44;;;30.93;18.34
61742;BME280;47650;49.848;9.620;2023-05-03T09:33:59;100553.09;;;28.13;20.34
61742;BME280;47650;49.848;9.620;2023-05-03T09:36:24;100447.13;;;31.52;16.94
61742;BME280;47650;49.848;9.620;2023-05-03T09:38:52;100532.22;;;31.72;17.53
61742;BME280;47650;49.848;9.620;2023-05-03T09:41:26;100519.44;;;32.46;16.66
61742;BME280;47650;49.848;9.620;2023-05-03T09:43:52;100472.00;;;32.56;16.87
61742;BME280;47650;49.848;9.620;2023-05-03T09:46:24;100523.53;;;32.38;17.06
61742;BME280;47650;49.848;9.620;2023-05-03T09:48:52;100522.06;;;33.91;16.02
61742;BME280;47650;49.848;9.620;2023-05-03T09:51:21;100505.47;;;35.22;15.01
61742;BME280;47650;49.848;9.620;2023-05-03T09:53:47;100517.78;;;30.02;18.49
61742;BME280;47650;49.848;9.620;2023-05-03T09:56:13;100525.78;;;32.47;16.35
61742;BME280;47650;49.848;9.620;2023-05-03T09:58:39;100495.16;;;33.58;16.66
61742;BME280;47650;49.848;9.620;2023-05-03T10:01:06;100506.16;;;33.78;16.05
61742;BME280;47650;49.848;9.620;2023-05-03T10:03:47;100411.56;;;28.81;18.58
61742;BME280;47650;49.848;9.620;2023-05-03T10:06:38;100542.31;;;27.83;21.15
61742;BME280;47650;49.848;9.620;2023-05-03T10:09:33;100465.81;;;30.95;18.41
61742;BME280;47650;49.848;9.620;2023-05-03T10:12:06;100513.59;;;33.42;16.69
61742;BME280;47650;49.848;9.620;2023-05-03T10:14:34;100475.88;;;33.83;15.57
61742;BME280;47650;49.848;9.620;2023-05-03T10:17:02;100459.72;;;33.10;15.62
61742;BME280;47650;49.848;9.620;2023-05-03T10:19:35;100515.28;;;29.61;18.72
61742;BME280;47650;49.848;9.620;2023-05-03T10:22:08;100510.25;;;30.53;18.29
61742;BME280;47650;49.848;9.620;2023-05-03T10:24:35;100490.75;;;32.90;16.92
61742;BME280;47650;49.848;9.620;2023-05-03T10:27:01;100474.38;;;35.46;14.64
61742;BME280;47650;49.848;9.620;2023-05-03T10:32:04;100462.44;;;36.85;13.44
61742;BME280;47650;49.848;9.620;2023-05-03T10:34:31;100478.75;;;37.19;12.91
61742;BME280;47650;49.848;9.620;2023-05-03T10:37:07;100476.81;;;35.76;14.35
61742;BME280;47650;49.848;9.620;2023-05-03T10:39:33;100481.41;;;35.86;14.31
61742;BME280;47650;49.848;9.620;2023-05-03T10:42:02;100468.84;;;36.61;13.52
61742;BME280;47650;49.848;9.620;2023-05-03T10:44:37;100461.34;;;38.21;12.11
61742;BME280;47650;49.848;9.620;2023-05-03T10:47:15;100461.53;;;36.89;13.37
61742;BME280;47650;49.848;9.620;2023-05-03T10:49:41;100387.50;;;34.90;15.38
61742;BME280;47650;49.848;9.620;2023-05-03T10:55:11;100436.25;;;36.82;13.06
61742;BME280;47650;49.848;9.620;2023-05-03T10:57:41;100462.28;;;35.42;13.49
61742;BME280;47650;49.848;9.620;2023-05-03T11:05:40;100439.47;;;38.70;11.41
61742;BME280;47650;49.848;9.620;2023-05-03T11:08:15;100439.72;;;39.05;11.56
61742;BME280;47650;49.848;9.620;2023-05-03T11:10:44;100421.25;;;38.78;12.12
61742;BME280;47650;49.848;9.620;2023-05-03T11:13:10;100437.03;;;38.54;10.97
61742;BME280;47650;49.848;9.620;2023-05-03T11:15:37;100388.56;;;37.37;11.81
61742;BME280;47650;49.848;9.620;2023-05-03T11:18:08;100442.97;;;38.62;11.97
61742;BME280;47650;49.848;9.620;2023-05-03T11:20:36;100420.75;;;38.39;11.04
61742;BME280;47650;49.848;9.620;2023-05-03T11:23:03;100428.06;;;39.97;10.60
61742;BME280;47650;49.848;9.620;2023-05-03T11:25:37;100435.09;;;40.03;10.55
61742;BME280;47650;49.848;9.620;2023-05-03T11:28:04;100420.50;;;39.08;9.66
61742;BME280;47650;49.848;9.620;2023-05-03T11:30:32;100418.84;;;36.44;12.59
61742;BME280;47650;49.848;9.620;2023-05-03T11:32:58;100430.66;;;35.34;13.48
61742;BME280;47650;49.848;9.620;2023-05-03T11:35:28;100429.53;;;34.21;14.02
61742;BME280;47650;49.848;9.620;2023-05-03T11:37:53;100399.97;;;31.49;15.81
61742;BME280;47650;49.848;9.620;2023-05-03T11:40:19;100413.16;;;35.44;14.27
61742;BME280;47650;49.848;9.620;2023-05-03T11:42:51;100420.94;;;35.90;13.29
61742;BME280;47650;49.848;9.620;2023-05-03T11:45:22;100411.47;;;39.65;10.65
61742;BME280;47650;49.848;9.620;2023-05-03T11:47:52;100397.31;;;39.84;10.60
61742;BME280;47650;49.848;9.620;2023-05-03T11:53:14;100394.88;;;41.05;9.33
61742;BME280;47650;49.848;9.620;2023-05-03T11:55:41;100394.50;;;39.27;10.84
61742;BME280;47650;49.848;9.620;2023-05-03T11:58:11;100400.91;;;39.45;11.04
61742;BME280;47650;49.848;9.620;2023-05-03T12:00:44;100334.38;;;39.54;10.00
61742;BME280;47650;49.848;9.620;2023-05-03T12:03:18;100397.97;;;38.06;11.33
61742;BME280;47650;49.848;9.620;2023-05-03T12:05:44;100385.63;;;37.15;11.85
61742;BME280;47650;49.848;9.620;2023-05-03T12:08:10;100408.28;;;39.09;10.28
61742;BME280;47650;49.848;9.620;2023-05-03T12:10:35;100401.31;;;40.53;9.52
61742;BME280;47650;49.848;9.620;2023-05-03T12:13:02;100385.94;;;41.38;9.28
61742;BME280;47650;49.848;9.620;2023-05-03T12:15:37;100349.22;;;41.06;9.16
61742;BME280;47650;49.848;9.620;2023-05-03T12:18:09;100384.84;;;41.13;8.32
61742;BME280;47650;49.848;9.620;2023-05-03T12:20:36;100401.03;;;41.58;8.48
61742;BME280;47650;49.848;9.620;2023-05-03T12:23:05;100402.47;;;40.44;9.60
61742;BME280;47650;49.848;9.620;2023-05-03T12:25:32;100376.81;;;41.67;9.16
61742;BME280;47650;49.848;9.620;2023-05-03T12:28:01;100384.69;;;41.86;8.57
61742;BME280;47650;49.848;9.620;2023-05-03T12:30:27;100391.31;;;43.73;7.19
61742;BME280;47650;49.848;9.620;2023-05-03T12:32:54;100369.13;;;44.90;6.89
61742;BME280;47650;49.848;9.620;2023-05-03T12:35:21;100377.88;;;44.88;7.54
61742;BME280;47650;49.848;9.620;2023-05-03T12:37:47;100372.00;;;45.73;6.85
61742;BME280;47650;49.848;9.620;2023-05-03T12:40:14;100386.41;;;40.14;9.23
61742;BME280;47650;49.848;9.620;2023-05-03T12:42:40;100375.16;;;40.81;8.87
61742;BME280;47650;49.848;9.620;2023-05-03T12:45:07;100379.25;;;40.66;9.39
61742;BME280;47650;49.848;9.620;2023-05-03T12:47:34;100362.94;;;42.43;8.00
61742;BME280;47650;49.848;9.620;2023-05-03T12:50:01;100376.47;;;44.10;7.45
61742;BME280;47650;49.848;9.620;2023-05-03T12:52:28;100327.56;;;44.16;7.21
61742;BME280;47650;49.848;9.620;2023-05-03T12:54:56;100372.72;;;43.16;7.65
61742;BME280;47650;49.848;9.620;2023-05-03T12:57:21;100362.00;;;43.30;6.79
61742;BME280;47650;49.848;9.620;2023-05-03T12:59:49;100364.25;;;42.79;7.30
61742;BME280;47650;49.848;9.620;2023-05-03T13:02:20;100369.38;;;39.72;8.79
61742;BME280;47650;49.848;9.620;2023-05-03T13:04:47;100368.88;;;37.94;9.59
61742;BME280;47650;49.848;9.620;2023-05-03T13:07:15;100360.88;;;39.68;8.56
61742;BME280;47650;49.848;9.620;2023-05-03T13:09:44;100366.31;;;38.57;9.52
61742;BME280;47650;49.848;9.620;2023-05-03T13:12:10;100361.16;;;38.42;9.30
61742;BME280;47650;49.848;9.620;2023-05-03T13:14:37;100282.91;;;40.70;8.02
61742;BME280;47650;49.848;9.620;2023-05-03T13:17:03;100346.31;;;39.54;8.45
61742;BME280;47650;49.848;9.620;2023-05-03T13:19:34;100351.66;;;41.08;7.75
61742;BME280;47650;49.848;9.620;2023-05-03T13:22:07;100342.22;;;41.39;7.88